sensor_id;sensor_type;location;lat;lon;timestamp;temperature;humidity
21883;DHT22;11106;47.864;13.054;2022-12-18T01:57:56;-3.60;99.90
21883;DHT22;11106;47.864;13.054;2022-12-18T02:02:57;-5.50;99.90
21883;DHT22;11106;47.864;13.054;2022-12-18T02:08:40;-5.60;99.90
21883;DHT22;11106;47.864;13.054;2022-12-18T02:14:14;-5.60;99.90
21883;DHT22;11106;47.864;13.054;2022-12-18T02:24:45;-5.80;99.90
21883;DHT22;11106;47.864;13.054;2022-12-18T02:29:51;-5.80;99.90
21883;DHT22;11106;47.864;13.054;2022-12-18T02:34:55;-6.00;99.90
21883;DHT22;11106;47.864;13.054;2022-12-18T02:39:57;-6.00;99.90
21883;DHT22;11106;47.864;13.054;2022-12-18T02:44:59;-6.20;99.90
21883;DHT22;11106;47.864;13.054;2022-12-18T03:05:50;-6.40;99.90
21883;DHT22;11106;47.864;13.054;2022-12-18T03:15:57;-6.40;99.90
21883;DHT22;11106;47.864;13.054;2022-12-18T03:21:02;-6.60;99.90
21883;DHT22;11106;47.864;13.054;2022-12-18T03:26:07;-6.60;99.90
21883;DHT22;11106;47.864;13.054;2022-12-18T03:31:12;-6.70;99.90
21883;DHT22;11106;47.864;13.054;2022-12-18T03:36:13;-6.70;99.90
21883;DHT22;11106;47.864;13.054;2022-12-18T08:13:42;-6.90;99.90
21883;DHT22;11106;47.864;13.054;2022-12-18T11:01:15;11.80;65.10
21883;DHT22;11106;47.864;13.054;2022-12-18T11:06:19;6.70;77.60
21883;DHT22;11106;47.864;13.054;2022-12-18T11:11:25;6.00;83.90
21883;DHT22;11106;47.864;13.054;2022-12-18T11:16:26;5.50;85.60
21883;DHT22;11106;47.864;13.054;2022-12-18T11:21:27;4.20;88.70
21883;DHT22;11106;47.864;13.054;2022-12-18T11:26:37;3.50;91.30
21883;DHT22;11106;47.864;13.054;2022-12-18T11:31:38;3.30;91.70
21883;DHT22;11106;47.864;13.054;2022-12-18T11:36:43;2.30;93.50
21883;DHT22;11106;47.864;13.054;2022-12-18T11:41:56;2.20;93.80
21883;DHT22;11106;47.864;13.054;2022-12-18T11:47:21;1.40;95.90
21883;DHT22;11106;47.864;13.054;2022-12-18T11:52:31;1.30;96.80
21883;DHT22;11106;47.864;13.054;2022-12-18T11:57:42;1.30;96.90
21883;DHT22;11106;47.864;13.054;2022-12-18T12:03:27;1.30;97.10
21883;DHT22;11106;47.864;13.054;2022-12-18T12:39:47;-0.20;99.90
21883;DHT22;11106;47.864;13.054;2022-12-18T12:44:51;-0.40;99.90
21883;DHT22;11106;47.864;13.054;2022-12-18T12:49:55;-0.40;99.90
21883;DHT22;11106;47.864;13.054;2022-12-18T12:54:56;-0.40;99.90
21883;DHT22;11106;47.864;13.054;2022-12-18T13:05:09;-0.20;99.90
21883;DHT22;11106;47.864;13.054;2022-12-18T13:15:26;-0.70;99.90
21883;DHT22;11106;47.864;13.054;2022-12-18T13:20:39;-0.60;99.90
21883;DHT22;11106;47.864;13.054;2022-12-18T13:25:40;-0.90;99.90
21883;DHT22;11106;47.864;13.054;2022-12-18T13:30:47;-0.90;99.90
21883;DHT22;11106;47.864;13.054;2022-12-18T13:46:30;-1.20;99.90
21883;DHT22;11106;47.864;13.054;2022-12-18T13:51:55;-1.20;99.90
21883;DHT22;11106;47.864;13.054;2022-12-18T13:56:56;-1.10;99.90
21883;DHT22;11106;47.864;13.054;2022-12-18T14:01:59;-1.10;99.90
21883;DHT22;11106;47.864;13.054;2022-12-18T14:07:07;-1.20;99.90
21883;DHT22;11106;47.864;13.054;2022-12-18T14:12:25;-1.20;99.90
21883;DHT22;11106;47.864;13.054;2022-12-18T14:17:45;-1.40;99.90
21883;DHT22;11106;47.864;13.054;2022-12-18T14:22:47;-1.40;99.90
21883;DHT22;11106;47.864;13.054;2022-12-18T14:28:14;-1.50;99.90
21883;DHT22;11106;47.864;13.054;2022-12-18T14:33:22;-1.50;99.90
21883;DHT22;11106;47.864;13.054;2022-12-18T14:38:35;-1.50;99.90
21883;DHT22;11106;47.864;13.054;2022-12-18T14:43:38;-1.50;99.90
21883;DHT22;11106;47.864;13.054;2022-12-18T14:48:41;-1.60;99.90
21883;DHT22;11106;47.864;13.054;2022-12-18T14:53:47;-1.80;99.90
21883;DHT22;11106;47.864;13.054;2022-12-18T14:58:53;-1.90;99.90
21883;DHT22;11106;47.864;13.054;2022-12-18T15:03:56;-2.00;99.90
21883;DHT22;11106;47.864;13.054;2022-12-18T15:08:58;-2.20;99.90
21883;DHT22;11106;47.864;13.054;2022-12-18T15:13:59;-2.30;99.90
21883;DHT22;11106;47.864;13.054;2022-12-18T15:19:01;-2.50;99.90
21883;DHT22;11106;47.864;13.054;2022-12-18T15:24:01;-2.70;99.90
21883;DHT22;11106;47.864;13.054;2022-12-18T15:29:02;-2.80;99.90
21883;DHT22;11106;47.864;13.054;2022-12-18T15:34:19;-3.00;99.90
21883;DHT22;11106;47.864;13.054;2022-12-18T15:39:21;-3.00;99.90
21883;DHT22;11106;47.864;13.054;2022-12-18T15:44:23;-3.10;99.90
21883;DHT22;11106;47.864;13.054;2022-12-18T15:49:24;-3.20;99.90
21883;DHT22;11106;47.864;13.054;2022-12-18T15:54:25;-3.30;99.90
21883;DHT22;11106;47.864;13.054;2022-12-18T15:59:45;-3.40;99.90
21883;DHT22;11106;47.864;13.054;2022-12-18T16:04:45;-3.50;99.90
21883;DHT22;11106;47.864;13.054;2022-12-18T16:09:49;-3.50;99.90
21883;DHT22;11106;47.864;13.054;2022-12-18T16:14:50;-3.60;99.90
21883;DHT22;11106;47.864;13.054;2022-12-18T16:19:50;-3.70;99.90
21883;DHT22;11106;47.864;13.054;2022-12-18T16:24:52;-3.70;99.90
21883;DHT22;11106;47.864;13.054;2022-12-18T16:29:53;-3.70;99.90
21883;DHT22;11106;47.864;13.054;2022-12-18T16:34:59;-3.70;99.90
21883;DHT22;11106;47.864;13.054;2022-12-18T16:40:00;-3.70;99.90
21883;DHT22;11106;47.864;13.054;2022-12-18T16:45:01;-3.70;99.90
21883;DHT22;11106;47.864;13.054;2022-12-18T16:50:02;-3.80;99.90
21883;DHT22;11106;47.864;13.054;2022-12-18T16:55:04;-3.80;99.90
21883;DHT22;11106;47.864;13.054;2022-12-18T17:00:06;-3.80;99.90
21883;DHT22;11106;47.864;13.054;2022-12-18T17:05:07;-3.80;99.90
21883;DHT22;11106;47.864;13.054;2022-12-18T17:10:08;-3.80;99.90
21883;DHT22;11106;47.864;13.054;2022-12-18T17:15:09;-3.80;99.90
21883;DHT22;11106;47.864;13.054;2022-12-18T17:20:10;-3.90;99.90
21883;DHT22;11106;47.864;13.054;2022-12-18T17:25:11;-3.90;99.90
21883;DHT22;11106;47.864;13.054;2022-12-18T17:30:12;-3.90;99.90
21883;DHT22;11106;47.864;13.054;2022-12-18T17:35:14;-3.90;99.90
21883;DHT22;11106;47.864;13.054;2022-12-18T17:40:15;-3.90;99.90
21883;DHT22;11106;47.864;13.054;2022-12-18T17:45:18;-4.00;99.90
21883;DHT22;11106;47.864;13.054;2022-12-18T17:50:20;-4.00;99.90
21883;DHT22;11106;47.864;13.054;2022-12-18T17:55:20;-4.00;99.90
21883;DHT22;11106;47.864;13.054;2022-12-18T18:00:21;-4.00;99.90
21883;DHT22;11106;47.864;13.054;2022-12-18T18:05:23;-4.00;99.90
21883;DHT22;11106;47.864;13.054;2022-12-18T18:10:24;-4.00;99.90
21883;DHT22;11106;47.864;13.054;2022-12-18T18:15:25;-4.10;99.90
21883;DHT22;11106;47.864;13.054;2022-12-18T18:20:25;-4.00;99.90
21883;DHT22;11106;47.864;13.054;2022-12-18T18:25:27;-4.10;99.90
21883;DHT22;11106;47.864;13.054;2022-12-18T18:30:28;-4.10;99.90
21883;DHT22;11106;47.864;13.054;2022-12-18T18:35:29;-4.20;99.90
21883;DHT22;11106;47.864;13.054;2022-12-18T18:40:30;-4.30;99.90
21883;DHT22;11106;47.864;13.054;2022-12-18T18:45:30;-4.30;99.90
21883;DHT22;11106;47.864;13.054;2022-12-18T18:50:31;-4.30;99.90
21883;DHT22;11106;47.864;13.054;2022-12-18T18:55:32;-4.30;99.90
21883;DHT22;11106;47.864;13.054;2022-12-18T19:00:33;-4.30;99.90
21883;DHT22;11106;47.864;13.054;2022-12-18T19:05:34;-4.30;99.90
21883;DHT22;11106;47.864;13.054;2022-12-18T19:10:39;-4.30;99.90
21883;DHT22;11106;47.864;13.054;2022-12-18T19:15:40;-4.40;99.90
21883;DHT22;11106;47.864;13.054;2022-12-18T19:20:40;-4.40;99.90
21883;DHT22;11106;47.864;13.054;2022-12-18T19:25:41;-4.40;99.90
21883;DHT22;11106;47.864;13.054;2022-12-18T19:30:42;-4.50;99.90
21883;DHT22;11106;47.864;13.054;2022-12-18T19:35:43;-4.40;99.90
21883;DHT22;11106;47.864;13.054;2022-12-18T19:40:44;-4.40;99.90
21883;DHT22;11106;47.864;13.054;2022-12-18T19:45:44;-4.50;99.90
21883;DHT22;11106;47.864;13.054;2022-12-18T19:50:45;-4.50;99.90
21883;DHT22;11106;47.864;13.054;2022-12-18T19:55:46;-4.50;99.90
21883;DHT22;11106;47.864;13.054;2022-12-18T20:00:46;-4.50;99.90
21883;DHT22;11106;47.864;13.054;2022-12-18T20:05:47;-4.50;99.90
21883;DHT22;11106;47.864;13.054;2022-12-18T20:10:48;-4.50;99.90
21883;DHT22;11106;47.864;13.054;2022-12-18T20:15:48;-4.60;99.90
21883;DHT22;11106;47.864;13.054;2022-12-18T20:20:49;-4.50;99.90
21883;DHT22;11106;47.864;13.054;2022-12-18T20:25:53;-4.50;99.90
21883;DHT22;11106;47.864;13.054;2022-12-18T20:30:59;-4.50;99.90
21883;DHT22;11106;47.864;13.054;2022-12-18T20:36:11;-4.50;99.90
21883;DHT22;11106;47.864;13.054;2022-12-18T20:41:19;-4.50;99.90
21883;DHT22;11106;47.864;13.054;2022-12-18T20:46:20;-4.50;99.90
21883;DHT22;11106;47.864;13.054;2022-12-18T20:51:21;-4.50;99.90
21883;DHT22;11106;47.864;13.054;2022-12-18T20:56:22;-4.50;99.90
21883;DHT22;11106;47.864;13.054;2022-12-18T21:01:23;-4.60;99.90
21883;DHT22;11106;47.864;13.054;2022-12-18T21:06:24;-4.60;99.90
21883;DHT22;11106;47.864;13.054;2022-12-18T21:11:28;-4.60;99.90
21883;DHT22;11106;47.864;13.054;2022-12-18T21:16:48;-4.70;99.90
21883;DHT22;11106;47.864;13.054;2022-12-18T21:21:50;-4.70;99.90
21883;DHT22;11106;47.864;13.054;2022-12-18T21:26:51;-4.70;99.90
21883;DHT22;11106;47.864;13.054;2022-12-18T21:31:52;-4.80;99.90
21883;DHT22;11106;47.864;13.054;2022-12-18T21:36:55;-4.80;99.90
21883;DHT22;11106;47.864;13.054;2022-12-18T21:42:03;-4.90;99.90
21883;DHT22;11106;47.864;13.054;2022-12-18T21:47:22;-4.90;99.90
21883;DHT22;11106;47.864;13.054;2022-12-18T21:52:23;-4.90;99.90
21883;DHT22;11106;47.864;13.054;2022-12-18T21:57:23;-4.80;99.90
21883;DHT22;11106;47.864;13.054;2022-12-18T22:02:24;-4.60;99.90
21883;DHT22;11106;47.864;13.054;2022-12-18T22:07:26;-4.50;99.90
21883;DHT22;11106;47.864;13.054;2022-12-18T22:12:28;-4.50;99.90
21883;DHT22;11106;47.864;13.054;2022-12-18T22:17:34;-4.40;99.90
21883;DHT22;11106;47.864;13.054;2022-12-18T22:22:35;-4.40;99.90
21883;DHT22;11106;47.864;13.054;2022-12-18T22:27:36;-4.40;99.90
21883;DHT22;11106;47.864;13.054;2022-12-18T22:32:37;-4.30;99.90
21883;DHT22;11106;47.864;13.054;2022-12-18T22:37:37;-4.30;99.90
21883;DHT22;11106;47.864;13.054;2022-12-18T22:42:38;-4.20;99.90
21883;DHT22;11106;47.864;13.054;2022-12-18T22:47:38;-4.10;99.90
21883;DHT22;11106;47.864;13.054;2022-12-18T22:52:39;-4.00;99.90
21883;DHT22;11106;47.864;13.054;2022-12-18T22:57:40;-4.00;99.90
21883;DHT22;11106;47.864;13.054;2022-12-18T23:02:41;-4.00;99.90
21883;DHT22;11106;47.864;13.054;2022-12-18T23:07:42;-4.00;99.90
21883;DHT22;11106;47.864;13.054;2022-12-18T23:12:42;-4.00;99.90
21883;DHT22;11106;47.864;13.054;2022-12-18T23:17:43;-4.10;99.90
21883;DHT22;11106;47.864;13.054;2022-12-18T23:22:44;-4.30;99.90
21883;DHT22;11106;47.864;13.054;2022-12-18T23:27:44;-4.60;99.90
21883;DHT22;11106;47.864;13.054;2022-12-18T23:32:45;-4.70;99.90
21883;DHT22;11106;47.864;13.054;2022-12-18T23:37:46;-4.90;99.90
21883;DHT22;11106;47.864;13.054;2022-12-18T23:42:48;-4.90;99.90
21883;DHT22;11106;47.864;13.054;2022-12-18T23:47:48;-4.90;99.90
21883;DHT22;11106;47.864;13.054;2022-12-18T23:52:49;-5.00;99.90
21883;DHT22;11106;47.864;13.054;2022-12-18T23:57:50;-5.00;99.90
